createdAt,value
2023-04-24T05:10:15.639Z,13.55
2023-04-24T05:12:52.008Z,13.40
2023-04-24T05:15:19.951Z,13.63
2023-04-24T05:17:47.501Z,13.15
2023-04-24T05:20:15.910Z,13.43
2023-04-24T05:22:44.362Z,13.02
2023-04-24T05:25:13.425Z,12.85
2023-04-24T05:27:47.419Z,12.43
2023-04-24T05:30:16.717Z,13.20
2023-04-24T05:32:44.310Z,13.10
2023-04-24T05:35:11.746Z,13.75
2023-04-24T05:37:39.354Z,12.70
2023-04-24T05:40:08.094Z,12.90
2023-04-24T05:42:35.861Z,12.77
2023-04-24T05:45:03.211Z,13.02
2023-04-24T05:47:30.631Z,13.48
2023-04-24T05:49:59.183Z,13.18
2023-04-24T05:52:29.101Z,13.40
2023-04-24T05:54:56.693Z,13.55
2023-04-24T05:57:27.772Z,13.50
2023-04-24T06:00:00.291Z,13.25
2023-04-24T06:02:28.899Z,13.48
2023-04-24T06:04:56.563Z,13.57
2023-04-24T06:07:25.523Z,13.63
2023-04-24T06:09:53.181Z,12.68
2023-04-24T06:12:20.670Z,13.88
2023-04-24T06:14:56.585Z,13.73
2023-04-24T06:17:52.825Z,13.32
2023-04-24T06:20:21.540Z,13.77
2023-04-24T06:22:48.867Z,12.82
2023-04-24T06:25:16.287Z,12.63
2023-04-24T06:27:44.502Z,13.32
2023-04-24T06:30:12.035Z,12.98
2023-04-24T06:32:39.715Z,13.32
2023-04-24T06:35:09.057Z,13.63
2023-04-24T06:37:36.361Z,12.85
2023-04-24T06:40:03.846Z,13.05
2023-04-24T06:42:31.091Z,13.57
2023-04-24T06:44:58.590Z,12.48
2023-04-24T06:47:26.065Z,13.15
2023-04-24T06:49:53.643Z,13.15
2023-04-24T06:52:21.475Z,14.00
2023-04-24T06:54:48.882Z,13.57
2023-04-24T06:57:17.303Z,14.07
2023-04-24T06:59:44.845Z,13.18
2023-04-24T07:02:12.532Z,14.00
2023-04-24T07:04:40.075Z,13.23
2023-04-24T07:07:07.906Z,13.20
2023-04-24T07:09:39.475Z,12.95
2023-04-24T07:12:06.960Z,13.25
2023-04-24T07:14:34.437Z,12.98
2023-04-24T07:17:02.331Z,14.85
2023-04-24T07:19:29.647Z,13.15
2023-04-24T07:21:56.949Z,12.80
2023-04-24T07:24:26.228Z,12.35
2023-04-24T07:26:54.759Z,12.65
2023-04-24T07:29:22.048Z,12.77
2023-04-24T07:31:49.379Z,12.32
2023-04-24T07:34:16.816Z,12.05
2023-04-24T07:36:44.154Z,12.38
2023-04-24T07:39:11.449Z,12.93
2023-04-24T07:41:38.740Z,13.40
2023-04-24T07:44:06.051Z,13.05
2023-04-24T07:46:33.948Z,12.73
2023-04-24T07:49:12.534Z,13.15
2023-04-24T07:51:42.622Z,12.50
2023-04-24T07:54:10.643Z,12.48
2023-04-24T07:56:40.045Z,11.50
2023-04-24T07:59:07.948Z,11.57
2023-04-24T08:01:35.503Z,11.75
2023-04-24T08:04:03.149Z,11.43
2023-04-24T08:06:31.623Z,11.50
2023-04-24T08:08:59.546Z,11.10
2023-04-24T08:11:27.080Z,10.90
2023-04-24T08:13:56.304Z,12.00
2023-04-24T08:16:25.312Z,11.90
2023-04-24T08:18:52.957Z,11.77
2023-04-24T08:21:21.711Z,11.68
2023-04-24T08:23:48.991Z,11.77
2023-04-24T08:26:16.508Z,11.85
2023-04-24T08:28:44.191Z,11.55
2023-04-24T08:31:13.113Z,10.98
2023-04-24T08:33:42.008Z,11.25
2023-04-24T08:36:10.232Z,11.40
2023-04-24T08:38:40.556Z,10.50
2023-04-24T08:41:11.370Z,10.30
2023-04-24T08:43:38.857Z,10.80
2023-04-24T08:46:10.305Z,11.23
2023-04-24T08:48:39.924Z,10.73
2023-04-24T08:51:09.332Z,11.07
2023-04-24T08:53:37.155Z,10.77
2023-04-24T08:56:06.480Z,10.48
2023-04-24T08:58:33.894Z,10.32
2023-04-24T09:01:01.913Z,10.00
2023-04-24T09:03:30.427Z,10.48
2023-04-24T09:05:58.944Z,10.70
2023-04-24T09:08:27.751Z,9.77
2023-04-24T09:10:55.262Z,9.65
2023-04-24T09:13:28.401Z,9.80
2023-04-24T09:15:58.386Z,10.65
2023-04-24T09:18:26.560Z,10.43
2023-04-24T09:21:01.594Z,10.18
2023-04-24T09:23:29.751Z,10.60
2023-04-24T09:25:57.931Z,10.43
2023-04-24T09:28:32.609Z,10.35
2023-04-24T09:31:05.682Z,10.23
2023-04-24T09:33:34.466Z,9.68
2023-04-24T09:36:03.368Z,10.07
2023-04-24T09:38:38.872Z,10.60
2023-04-24T09:41:07.717Z,11.00
2023-04-24T09:43:36.836Z,10.43
2023-04-24T09:46:08.570Z,10.60
2023-04-24T09:48:37.402Z,10.57
2023-04-24T09:51:07.762Z,11.25
2023-04-24T09:53:35.134Z,10.68
2023-04-24T09:56:09.706Z,10.65
2023-04-24T09:58:37.725Z,10.32
2023-04-24T10:01:05.476Z,10.85
2023-04-24T10:03:34.864Z,10.48
2023-04-24T10:06:02.999Z,10.32
2023-04-24T10:08:35.526Z,9.63
2023-04-24T10:11:03.179Z,8.98
2023-04-24T10:13:32.249Z,8.90
2023-04-24T10:16:01.593Z,9.90
2023-04-24T10:18:29.247Z,9.13
2023-04-24T10:20:57.171Z,8.90
2023-04-24T10:23:29.107Z,10.02
2023-04-24T10:25:56.554Z,10.27
2023-04-24T10:28:26.558Z,10.50
2023-04-24T10:30:56.605Z,9.85
2023-04-24T10:33:27.637Z,10.00
2023-04-24T10:35:55.184Z,10.15
2023-04-24T10:38:29.652Z,10.23
2023-04-24T10:41:10.379Z,10.02
2023-04-24T10:43:38.004Z,10.10
2023-04-24T10:46:06.748Z,10.35
2023-04-24T10:48:35.465Z,10.70
2023-04-24T10:53:45.977Z,11.50
2023-04-24T10:56:17.890Z,9.90
2023-04-24T10:58:53.491Z,9.68
2023-04-24T11:01:36.722Z,8.63
2023-04-24T11:04:07.730Z,7.70
2023-04-24T11:06:37.245Z,8.02
2023-04-24T11:09:09.265Z,8.18
2023-04-24T11:11:46.189Z,8.00
2023-04-24T11:14:20.597Z,8.20
2023-04-24T11:16:58.988Z,8.82
2023-04-24T11:19:30.577Z,8.35
2023-04-24T11:22:04.741Z,8.63
2023-04-24T11:24:35.056Z,8.00
2023-04-24T11:27:06.255Z,8.25
2023-04-24T11:29:40.674Z,8.50
2023-04-24T11:32:26.676Z,8.02
2023-04-24T11:34:55.580Z,6.85
2023-04-24T11:37:24.132Z,7.03
2023-04-24T11:39:55.940Z,7.50
2023-04-24T11:42:24.140Z,7.45
2023-04-24T11:44:53.484Z,7.65
2023-04-24T11:47:20.928Z,7.60
2023-04-24T11:49:48.295Z,7.90
2023-04-24T11:52:18.055Z,7.50
2023-04-24T11:54:49.640Z,7.57
2023-04-24T11:57:17.184Z,7.68
2023-04-24T11:59:45.046Z,8.02
2023-04-24T12:02:21.958Z,7.70
2023-04-24T12:04:50.088Z,7.97
2023-04-24T12:07:17.715Z,7.07
2023-04-24T12:09:56.591Z,7.40
2023-04-24T12:12:26.600Z,7.75
2023-04-24T12:15:01.087Z,7.45
2023-04-24T12:17:32.213Z,7.70
2023-04-24T12:20:07.312Z,7.20
2023-04-24T12:22:56.899Z,7.97
2023-04-24T12:25:25.525Z,7.47
2023-04-24T12:27:57.155Z,7.63
2023-04-24T12:30:29.848Z,7.47
2023-04-24T12:33:05.406Z,7.35
2023-04-24T12:35:34.979Z,7.20
2023-04-24T12:38:09.432Z,7.93
2023-04-24T12:40:40.218Z,8.20
2023-04-24T12:43:18.190Z,7.90
2023-04-24T12:45:52.901Z,7.97
2023-04-24T12:48:22.203Z,8.30
2023-04-24T12:50:51.203Z,7.50
2023-04-24T12:53:19.661Z,6.53
2023-04-24T12:55:48.309Z,9.20
2023-04-24T12:58:18.481Z,6.03
2023-04-24T13:00:47.276Z,5.80
2023-04-24T13:03:15.388Z,5.30
2023-04-24T13:05:45.275Z,5.53
2023-04-24T13:08:14.026Z,5.50
2023-04-24T13:10:42.066Z,5.45
2023-04-24T13:13:09.739Z,5.72
2023-04-24T13:15:38.566Z,6.25
2023-04-24T13:18:07.176Z,5.93
2023-04-24T13:20:36.804Z,6.93
2023-04-24T13:23:06.359Z,5.93
2023-04-24T13:25:38.472Z,5.20
2023-04-24T13:28:05.983Z,5.65
2023-04-24T13:30:33.495Z,5.65
2023-04-24T13:33:00.896Z,5.32
2023-04-24T13:35:28.424Z,5.20
2023-04-24T13:37:56.062Z,5.63
2023-04-24T13:40:23.588Z,5.20
2023-04-24T13:42:51.205Z,5.60
2023-04-24T13:45:25.407Z,5.40
2023-04-24T13:47:54.710Z,5.18
2023-04-24T13:50:23.116Z,4.97
2023-04-24T13:52:50.522Z,4.85
2023-04-24T13:55:17.963Z,5.43
2023-04-24T13:57:45.823Z,5.25
2023-04-24T14:00:14.548Z,4.82
2023-04-24T14:02:43.542Z,4.55
2023-04-24T14:05:12.194Z,4.95
2023-04-24T14:07:39.785Z,4.60
2023-04-24T14:10:07.722Z,4.85
2023-04-24T14:12:37.628Z,4.95
2023-04-24T14:15:06.034Z,4.88
2023-04-24T14:17:33.835Z,5.07
2023-04-24T14:20:01.706Z,4.80
2023-04-24T14:22:29.445Z,5.18
2023-04-24T14:24:57.026Z,4.60
2023-04-24T14:27:24.355Z,4.90
2023-04-24T14:29:51.784Z,4.57
2023-04-24T14:32:20.479Z,4.78
2023-04-24T14:34:50.446Z,4.70
2023-04-24T14:37:18.826Z,4.80
2023-04-24T14:39:56.325Z,4.88
2023-04-24T14:42:36.966Z,5.20
2023-04-24T14:45:11.538Z,5.40
2023-04-24T14:47:42.412Z,5.28
2023-04-24T14:50:14.357Z,5.05
2023-04-24T14:52:42.201Z,5.50
2023-04-24T14:55:09.910Z,5.40
2023-04-24T14:57:40.418Z,5.50
2023-04-24T15:00:11.345Z,5.55
2023-04-24T15:02:55.173Z,5.65
2023-04-24T15:05:24.258Z,5.93
2023-04-24T15:07:52.674Z,5.85
2023-04-24T15:10:23.959Z,5.55
2023-04-24T15:12:51.458Z,5.70
2023-04-24T15:15:25.690Z,5.50
2023-04-24T15:17:54.737Z,5.40
2023-04-24T15:20:23.753Z,5.13
2023-04-24T15:23:03.054Z,4.75
2023-04-24T15:25:30.489Z,5.10
2023-04-24T15:27:58.994Z,5.53
2023-04-24T15:30:26.511Z,5.15
2023-04-24T15:32:53.943Z,5.07
2023-04-24T15:35:21.347Z,5.40
2023-04-24T15:37:48.864Z,4.97
2023-04-24T15:40:19.222Z,5.10
2023-04-24T15:42:48.449Z,5.28
2023-04-24T15:45:15.915Z,5.00
2023-04-24T15:47:43.322Z,4.97
2023-04-24T15:50:14.736Z,4.90
2023-04-24T15:52:43.366Z,5.93
2023-04-24T15:55:12.063Z,5.10
2023-04-24T15:57:40.820Z,5.88
2023-04-24T16:00:11.647Z,6.05
2023-04-24T16:02:40.115Z,5.78
2023-04-24T16:05:08.895Z,5.72
2023-04-24T16:07:39.204Z,5.80
2023-04-24T16:10:07.710Z,6.18
2023-04-24T16:12:38.249Z,5.80
2023-04-24T16:15:16.603Z,6.10
2023-04-24T16:17:44.467Z,6.53
2023-04-24T16:20:19.663Z,6.43
2023-04-24T16:22:47.737Z,6.65
2023-04-24T16:25:16.674Z,5.90
2023-04-24T16:27:46.940Z,6.75
2023-04-24T16:30:16.991Z,6.07
2023-04-24T16:32:46.490Z,5.95
2023-04-24T16:35:15.684Z,6.00
2023-04-24T16:40:27.097Z,5.60
2023-04-24T16:42:56.766Z,5.80
2023-04-24T16:45:28.760Z,5.90
2023-04-24T16:47:59.749Z,6.65
2023-04-24T16:50:30.076Z,6.32
2023-04-24T16:52:57.538Z,6.20
2023-04-24T16:55:28.508Z,6.05
2023-04-24T16:58:00.195Z,5.93
2023-04-24T17:00:37.076Z,6.03
2023-04-24T17:03:06.709Z,6.38
2023-04-24T17:05:36.589Z,6.70
2023-04-24T17:08:05.528Z,6.40
2023-04-24T17:10:33.210Z,7.30
2023-04-24T17:13:01.132Z,6.63
2023-04-24T17:15:29.667Z,6.90
2023-04-24T17:17:59.396Z,7.38
2023-04-24T17:20:29.801Z,6.68
2023-04-24T17:22:58.468Z,6.30
2023-04-24T17:25:26.773Z,6.38
2023-04-24T17:27:54.084Z,6.47
2023-04-24T17:30:21.786Z,6.40
2023-04-24T17:32:51.102Z,6.03
2023-04-24T17:35:18.960Z,6.70
2023-04-24T17:37:47.328Z,6.65
2023-04-24T17:40:14.800Z,6.93
2023-04-24T17:42:42.469Z,6.88
2023-04-24T17:45:10.452Z,6.90
2023-04-24T17:47:37.827Z,6.90
2023-04-24T17:50:05.906Z,6.65
2023-04-24T17:52:33.576Z,6.88
2023-04-24T17:55:02.340Z,6.80
2023-04-24T17:57:30.873Z,7.28
2023-04-24T17:59:58.283Z,6.93
2023-04-24T18:02:25.863Z,7.20
2023-04-24T18:04:56.038Z,7.10
2023-04-24T18:07:23.467Z,7.45
2023-04-24T18:09:56.288Z,7.75
2023-04-24T18:12:24.123Z,8.20
2023-04-24T18:14:54.911Z,7.20
2023-04-24T18:17:30.326Z,7.78
2023-04-24T18:19:57.662Z,7.88
2023-04-24T18:22:24.946Z,7.30
2023-04-24T18:24:52.290Z,7.60
2023-04-24T18:27:19.666Z,7.40
2023-04-24T18:29:47.008Z,7.35
2023-04-24T18:32:14.343Z,7.30
2023-04-24T18:34:41.670Z,7.07
2023-04-24T18:37:08.986Z,7.38
2023-04-24T18:39:36.784Z,7.20
2023-04-24T18:42:04.182Z,7.43
2023-04-24T18:44:31.556Z,6.90
2023-04-24T18:46:59.026Z,7.20
2023-04-24T18:49:26.384Z,7.00
2023-04-24T18:51:54.732Z,7.10
2023-04-24T18:54:22.175Z,6.68
2023-04-24T18:56:49.598Z,7.05
2023-04-24T18:59:19.334Z,7.43
2023-04-24T19:01:46.723Z,7.90
2023-04-24T19:04:14.178Z,7.90
2023-04-24T19:06:41.513Z,7.90
2023-04-24T19:09:09.094Z,7.40
2023-04-24T19:11:36.431Z,7.60
2023-04-24T19:14:05.686Z,7.80
2023-04-24T19:16:33.086Z,7.72
2023-04-24T19:19:00.409Z,7.45
2023-04-24T19:21:28.477Z,7.95
2023-04-24T19:23:57.060Z,7.63
2023-04-24T19:26:25.822Z,7.65
2023-04-24T19:28:53.787Z,7.20
2023-04-24T19:31:21.472Z,7.53
2023-04-24T19:33:48.968Z,7.85
2023-04-24T19:36:17.820Z,7.40
2023-04-24T19:38:45.502Z,7.75
2023-04-24T19:41:13.130Z,8.52
2023-04-24T19:43:40.648Z,7.85
2023-04-24T19:46:08.190Z,8.27
2023-04-24T19:48:35.796Z,8.15
2023-04-24T19:51:03.639Z,7.85
2023-04-24T19:53:31.663Z,7.82
2023-04-24T19:56:00.231Z,8.23
2023-04-24T19:58:30.655Z,7.85
2023-04-24T20:00:58.383Z,8.68
2023-04-24T20:03:33.676Z,8.93
2023-04-24T20:06:01.909Z,9.88
2023-04-24T20:08:33.456Z,8.98
2023-04-24T20:11:01.488Z,9.10
2023-04-24T20:13:31.876Z,9.02
2023-04-24T20:16:00.212Z,9.48
2023-04-24T20:18:29.369Z,9.68
2023-04-24T20:20:56.917Z,10.07
2023-04-24T20:23:24.299Z,10.20
2023-04-24T20:25:57.936Z,10.32
2023-04-24T20:28:26.353Z,10.80
2023-04-24T20:30:53.937Z,10.65
2023-04-24T20:33:21.587Z,10.65
2023-04-24T20:35:49.722Z,11.13
2023-04-24T20:38:18.854Z,11.38
2023-04-24T20:40:57.230Z,12.15
2023-04-24T20:43:57.530Z,11.80
2023-04-24T20:46:26.498Z,13.07
2023-04-24T20:48:53.917Z,12.27
2023-04-24T20:51:21.280Z,12.40
2023-04-24T20:53:51.666Z,12.40
2023-04-24T20:56:19.306Z,12.82
2023-04-24T20:58:47.094Z,12.48
2023-04-24T21:01:17.994Z,11.88
2023-04-24T21:03:45.481Z,12.35
2023-04-24T21:06:12.827Z,12.70
2023-04-24T21:08:40.467Z,12.73
2023-04-24T21:11:07.791Z,12.52
2023-04-24T21:13:35.074Z,12.48
2023-04-24T21:16:02.520Z,14.23
2023-04-24T21:18:29.910Z,12.88
2023-04-24T21:20:57.405Z,12.50
2023-04-24T21:23:25.674Z,13.57
2023-04-24T21:25:53.073Z,13.00
2023-04-24T21:28:21.882Z,13.60
2023-04-24T21:30:49.385Z,13.27
2023-04-24T21:33:16.699Z,12.60
2023-04-24T21:35:44.288Z,12.95
2023-04-24T21:38:11.636Z,12.82
2023-04-24T21:40:39.010Z,12.23
2023-04-24T21:43:06.476Z,12.43
2023-04-24T21:45:33.768Z,11.77
2023-04-24T21:48:01.955Z,12.23
2023-04-24T21:50:29.395Z,12.52
2023-04-24T21:52:56.724Z,12.27
2023-04-24T21:55:24.156Z,12.48
2023-04-24T22:02:42.995Z,13.05
2023-04-24T22:05:15.743Z,12.32
2023-04-24T22:07:50.399Z,12.90
2023-04-24T22:10:18.238Z,11.90
2023-04-24T22:12:45.574Z,12.82
2023-04-24T22:15:12.970Z,12.55
2023-04-24T22:17:42.348Z,12.30
2023-04-24T22:20:10.540Z,12.52
2023-04-24T22:22:37.867Z,12.45
2023-04-24T22:25:05.435Z,13.32
2023-04-24T22:27:35.613Z,12.93
2023-04-24T22:30:22.368Z,13.57
2023-04-24T22:32:49.765Z,13.05
2023-04-24T22:35:17.176Z,13.40
2023-04-24T22:37:44.535Z,14.60
2023-04-24T22:40:12.020Z,14.35
2023-04-24T22:42:39.375Z,14.02
2023-04-24T22:45:26.169Z,13.82
2023-04-24T22:47:53.959Z,14.23
2023-04-24T22:50:22.556Z,15.02
2023-04-24T22:52:49.889Z,14.43
2023-04-24T22:55:17.196Z,15.18
2023-04-24T22:57:44.513Z,15.13
2023-04-24T23:00:13.330Z,15.38
2023-04-24T23:02:41.832Z,15.00
2023-04-24T23:05:10.550Z,15.75
2023-04-24T23:07:38.396Z,15.23
2023-04-24T23:10:06.284Z,15.13
2023-04-24T23:12:33.819Z,15.40
2023-04-24T23:15:01.426Z,15.68
2023-04-24T23:17:28.755Z,15.25
2023-04-24T23:19:56.139Z,15.57
2023-04-24T23:22:23.545Z,16.08
2023-04-24T23:24:51.503Z,16.20
2023-04-24T23:27:18.799Z,17.30
2023-04-24T23:29:46.091Z,17.13
2023-04-24T23:32:15.535Z,16.60
2023-04-24T23:34:43.006Z,16.85
2023-04-24T23:37:10.629Z,17.83
2023-04-24T23:39:37.929Z,16.33
2023-04-24T23:42:05.304Z,16.98
2023-04-24T23:44:32.678Z,16.65
2023-04-24T23:47:00.079Z,16.90
2023-04-24T23:49:27.659Z,17.08
2023-04-24T23:51:55.001Z,17.00
2023-04-24T23:54:22.330Z,17.25
2023-04-24T23:56:49.912Z,18.35
